Latest Weather Observations for Nullarbor

IDS60801

Issued at 4:02 pm CDT Monday 30 March 2015 (issued every 30 minutes, with the page automatically refreshed every 10 minutes)

About weather observations | Map of weather stations | Latest weather observations for SA | Other Formats
Station Details ID: 018106 Name: NULLARBOR Lat: -31.45 Lon: 130.90 Height: 64.0 m
Data from the previous 72 hours. | See also: Recent months at Nullarbor
Date/Time
CDT
Temp
°C
App
Temp
°C
Dew
Point
Rel
Hum
%
Delta-T
°C
Wind Press
QNH
hPa
Press
MSL
hPa
Rain
since 9 am
mm
Dir
 
Spd
km/h
Gust
km/h
Spd
kts
Gust
kts
30/04:00pm 28.2 24.3 12.1 37 9.3 SSE 24 32 13 17 1019.1 1018.9 0.2
30/03:30pm 28.7 25.0 13.8 40 8.9 S 26 33 14 18 1019.4 1019.2 0.2
30/03:00pm 29.6 27.2 12.5 35 10.0 SSE 17 26 9 14 1019.7 1019.5 0.2
30/02:30pm 32.5 28.3 5.9 19 14.2 NNE 17 30 9 16 1019.8 1019.6 0.2
30/02:00pm 32.2 26.8 6.4 20 13.9 NNE 24 33 13 18 1020.2 1020.0 0.2
30/01:30pm 31.5 26.9 6.5 21 13.4 NNE 20 37 11 20 1020.7 1020.5 0.2
30/01:00pm 30.7 25.6 5.9 21 13.1 NNE 22 33 12 18 1021.0 1020.8 0.2
30/12:30pm 30.4 26.5 7.0 23 12.6 NNE 17 26 9 14 1021.4 1021.2 0.2
30/12:00pm 28.5 24.1 6.6 25 11.6 NE 19 28 10 15 1021.9 1021.7 0.2
30/11:30am 27.4 23.5 8.8 31 10.2 ENE 19 24 10 13 1022.2 1022.0 0.2
30/11:00am 24.1 21.2 11.1 44 7.3 ENE 17 20 9 11 1022.5 1022.4 0.2
30/10:30am 22.1 18.9 11.2 50 6.0 E 19 24 10 13 1022.6 1022.5 0.0
30/10:00am 21.3 17.7 13.2 60 4.6 ESE 24 30 13 16 1022.6 1022.5 0.0
30/09:30am 20.1 17.1 14.9 72 3.0 ESE 24 32 13 17 1022.4 1022.3 0.0
30/09:00am 18.1 16.6 16.3 89 1.1 ESE 19 26 10 14 1022.1 1021.9 0.0
30/08:30am 16.6 15.1 16.4 99 0.1 ESE 19 22 10 12 1021.9 1021.7 0.0
30/08:00am 15.6 13.8 15.4 99 0.1 SE 19 20 10 11 1021.7 1021.5 0.0
30/07:30am 15.4 13.9 15.2 99 0.1 SE 17 20 9 11 1021.5 1021.3 0.0
30/07:00am 15.4 13.5 15.2 99 0.1 SE 19 20 10 11 1021.3 1021.1 0.0
30/06:30am 15.2 13.6 15.0 99 0.1 SE 17 19 9 10 1021.2 1021.0 0.0
30/06:00am 14.7 12.9 14.5 99 0.1 SSE 17 19 9 10 1021.2 1021.0 0.0
30/05:30am 14.4 12.5 14.2 99 0.1 SE 17 17 9 9 1021.1 1020.9 0.0
30/05:00am 14.6 12.8 14.4 99 0.1 SE 17 17 9 9 1021.1 1020.9 0.0
30/04:30am 13.7 12.0 13.5 99 0.1 SE 15 17 8 9 1021.4 1021.2 0.0
30/04:00am 13.5 11.3 13.3 99 0.1 SSE 17 17 9 9 1021.6 1021.4 0.0
30/03:30am 13.9 12.2 13.7 99 0.1 SSE 15 17 8 9 1021.9 1021.7 0.0
30/03:00am 14.3 12.8 14.1 99 0.1 SSE 15 15 8 8 1022.2 1022.0 0.0
30/02:30am 14.6 13.5 14.4 99 0.1 SSE 13 17 7 9 1022.3 1022.2 0.0
30/02:00am 14.9 13.2 14.7 99 0.1 S 17 17 9 9 1022.5 1022.4 0.0
30/01:30am 14.7 13.2 14.2 97 0.3 SSE 15 17 8 9 1022.8 1022.7 0.0
30/01:00am 15.1 13.6 14.3 95 0.5 SSE 15 17 8 9 1022.9 1022.8 0.0
30/12:30am 15.5 14.4 14.4 93 0.6 SSE 13 15 7 8 1023.1 1022.9 0.0
30/12:00am 16.2 15.2 14.7 91 0.9 SSE 13 15 7 8 1023.2 1023.0 0.0
 
Date/Time
CDT
Temp
°C
App
Temp
°C
Dew
Point
Rel
Hum
%
Delta-T
°C
Wind Press
QNH
hPa
Press
MSL
hPa
Rain
since 9 am
mm
Dir
 
Spd
km/h
Gust
km/h
Spd
kts
Gust
kts
29/11:30pm 16.9 16.1 15.1 89 1.0 SSE 13 15 7 8 1023.2 1023.0 0.0
29/11:00pm 17.5 16.8 15.3 87 1.3 SSE 13 15 7 8 1023.2 1023.0 0.0
29/10:30pm 17.9 16.7 15.0 83 1.7 SSE 15 17 8 9 1022.7 1022.6 0.0
29/10:00pm 18.2 16.5 14.7 80 2.0 SSE 17 20 9 11 1022.5 1022.4 0.0
29/09:30pm 18.5 16.8 14.6 78 2.3 SSE 17 22 9 12 1022.1 1021.9 0.0
29/09:00pm 18.7 16.6 14.6 77 2.4 SE 19 22 10 12 1021.6 1021.4 0.0
29/08:30pm 19.2 16.9 14.2 73 2.9 SSE 19 22 10 12 1021.5 1021.3 0.0
29/08:00pm 19.9 16.9 13.8 68 3.5 SSE 22 28 12 15 1021.3 1021.1 0.0
29/07:30pm 21.0 16.9 12.7 59 4.7 SSE 26 33 14 18 1021.1 1020.9 0.0
29/07:00pm 22.1 17.3 11.5 51 5.9 SSE 28 35 15 19 1020.9 1020.7 0.0
29/06:30pm 23.1 17.9 10.2 44 7.1 SSE 28 35 15 19 1020.7 1020.5 0.0
29/06:00pm 24.1 18.5 8.9 38 8.2 SSE 28 33 15 18 1020.5 1020.3 0.0
29/05:30pm 24.4 18.5 9.2 38 8.2 SSE 30 39 16 21 1020.3 1020.1 0.0
29/05:00pm 24.9 18.6 8.8 36 8.7 SSE 32 39 17 21 1020.2 1020.0 0.0
29/04:30pm 25.6 18.8 6.7 30 9.9 SSE 32 39 17 21 1019.9 1019.7 0.0
29/04:00pm 25.7 19.0 7.3 31 9.7 SSE 32 37 17 20 1020.1 1019.9 0.0
29/03:30pm 26.0 19.7 7.6 31 9.8 SSE 30 37 16 20 1020.3 1020.1 0.0
29/03:00pm 26.7 20.8 7.7 30 10.2 SSE 28 35 15 19 1020.5 1020.3 0.0
29/02:30pm 27.2 21.2 7.1 28 10.7 SSE 28 37 15 20 1020.8 1020.6 0.0
29/02:00pm 26.9 21.2 6.9 28 10.6 SSE 26 33 14 18 1021.3 1021.1 0.0
29/01:30pm 26.5 22.2 7.0 29 10.3 SSE 19 30 10 16 1021.7 1021.5 0.0
29/01:00pm 27.6 24.6 7.5 28 10.8 SE 13 24 7 13 1022.0 1021.8 0.0
29/12:30pm 26.7 24.2 6.7 28 10.5 SSE 9 15 5 8 1022.3 1022.2 0.0
29/12:00pm 25.5 22.6 6.7 30 9.8 ENE 11 17 6 9 1022.6 1022.5 0.0
29/11:30am 24.4 21.5 6.6 32 9.2 E 11 15 6 8 1022.6 1022.5 0.0
29/11:00am 23.9 20.8 7.1 34 8.8 ESE 13 19 7 10 1022.6 1022.5 0.0
29/10:30am 22.4 19.6 8.5 41 7.3 E 13 19 7 10 1022.6 1022.5 0.0
29/10:00am 21.6 18.9 10.4 49 6.1 ESE 15 19 8 10 1022.4 1022.3 0.0
29/09:30am 19.9 18.0 12.9 64 4.0 ESE 15 19 8 10 1022.2 1022.0 0.0
29/09:00am 17.5 16.4 13.0 75 2.5 ESE 11 13 6 7 1021.9 1021.7 0.0
29/08:30am 13.6 11.1 11.1 85 1.3 SE 15 19 8 10 1021.6 1021.4 0.0
29/08:00am 12.3 9.3 9.1 81 1.6 SSE 15 17 8 9 1021.3 1021.1 0.0
29/07:30am 12.2 9.1 7.3 72 2.4 SSE 13 17 7 9 1020.9 1020.7 0.0
29/07:00am 12.4 9.6 6.9 69 2.6 SE 11 13 6 7 1020.7 1020.5 0.0
29/06:30am 12.8 9.7 7.3 69 2.7 SSE 13 15 7 8 1020.5 1020.3 0.0
29/06:00am 13.6 11.7 7.4 66 3.0 ENE 7 11 4 6 1020.1 1019.9 0.0
29/05:30am 14.3 11.7 7.8 65 3.2 NE 11 13 6 7 1019.9 1019.7 0.0
29/05:00am 14.4 12.6 7.9 65 3.2 E 7 7 4 4 1019.8 1019.6 0.0
29/04:30am 14.0 11.9 8.2 68 2.9 ENE 9 11 5 6 1019.9 1019.7 0.0
29/04:00am 14.2 11.4 8.4 68 2.9 NE 13 15 7 8 1019.7 1019.5 0.0
29/03:30am 14.4 11.1 7.9 65 3.2 ENE 15 17 8 9 1019.7 1019.5 0.0
29/03:00am 15.1 12.2 8.1 63 3.5 NE 13 15 7 8 1020.0 1019.8 0.0
29/02:30am 15.5 12.6 9.6 68 3.1 ENE 15 19 8 10 1020.4 1020.2 0.0
29/02:00am 15.5 13.9 10.3 71 2.7 E 9 13 5 7 1020.6 1020.4 0.0
29/01:30am 15.4 13.3 11.0 75 2.3 E 13 13 7 7 1020.6 1020.4 0.0
29/01:00am 15.7 14.0 11.1 74 2.5 ESE 11 13 6 7 1020.9 1020.7 0.0
29/12:30am 16.1 14.1 11.5 74 2.5 ENE 13 13 7 7 1021.0 1020.8 0.0
29/12:00am 16.8 15.4 12.1 74 2.6 ESE 11 11 6 6 1021.0 1020.8 0.0
 
Date/Time
CDT
Temp
°C
App
Temp
°C
Dew
Point
Rel
Hum
%
Delta-T
°C
Wind Press
QNH
hPa
Press
MSL
hPa
Rain
since 9 am
mm
Dir
 
Spd
km/h
Gust
km/h
Spd
kts
Gust
kts
28/11:30pm 17.0 16.1 12.5 75 2.5 ESE 9 11 5 6 1021.1 1020.9 0.0
28/11:00pm 17.1 16.2 12.6 75 2.5 ESE 9 11 5 6 1021.1 1020.9 0.0
28/10:30pm 16.8 15.2 12.9 78 2.2 E 13 17 7 9 1021.2 1021.0 0.0
28/10:00pm 17.1 16.1 12.2 73 2.7 E 9 11 5 6 1021.4 1021.2 0.0
28/09:30pm 17.2 16.3 11.5 69 3.1 E 7 9 4 5 1021.0 1020.8 0.0
28/09:00pm 17.8 15.8 11.6 67 3.4 NE 13 17 7 9 1020.9 1020.7 0.0
28/08:30pm 18.5 17.1 10.8 61 4.2 E 9 9 5 5 1020.8 1020.6 0.0
28/08:00pm 19.5 18.0 11.8 61 4.3 SE 11 15 6 8 1020.3 1020.1 0.0
28/07:30pm 21.2 19.7 10.4 50 5.9 S 9 13 5 7 1020.4 1020.2 0.0
28/07:00pm 22.3 21.7 9.1 43 7.1 ENE 2 7 1 4 1020.0 1019.8 0.0
28/06:30pm 22.8 21.5 9.2 42 7.3 N 6 9 3 5 1019.8 1019.6 0.0
28/06:00pm 22.7 21.3 9.5 43 7.1 NNW 7 11 4 6 1019.6 1019.4 0.0
28/05:30pm 21.4 20.0 10.9 51 5.8 N 9 11 5 6 1019.4 1019.2 0.0
28/05:00pm 20.8 18.3 10.9 53 5.4 N 15 20 8 11 1019.7 1019.5 0.0
28/04:30pm 20.6 18.6 11.5 56 5.0 NNW 13 15 7 8 1020.1 1019.9 0.0
28/04:00pm 21.0 18.0 10.8 52 5.6 N 17 22 9 12 1020.2 1020.0 0.0
28/03:30pm 21.8 17.7 8.0 41 7.2 N 19 26 10 14 1020.2 1020.0 0.0
28/03:00pm 22.3 17.8 6.1 35 8.2 NNE 19 24 10 13 1020.2 1020.0 0.0
28/02:30pm 22.0 17.4 6.3 36 8.0 NNE 20 28 11 15 1020.3 1020.1 0.0
28/02:00pm 21.7 17.6 6.4 37 7.8 NNE 17 22 9 12 1020.7 1020.5 0.0
28/01:30pm 21.0 16.6 6.5 39 7.3 N 19 24 10 13 1021.3 1021.1 0.0
28/01:00pm 20.9 16.9 6.8 40 7.2 NNE 17 20 9 11 1021.6 1021.4 0.0
28/12:30pm 20.5 16.2 7.2 42 6.8 NNE 19 22 10 12 1022.0 1021.8 0.0
28/12:00pm 19.7 16.4 8.1 47 6.0 NNE 15 19 8 10 1022.2 1022.0 0.0
28/11:30am 18.8 15.2 8.2 50 5.5 NNE 17 20 9 11 1022.7 1022.6 0.0
28/11:00am 18.0 14.5 8.8 55 4.8 NNE 17 22 9 12 1022.9 1022.8 0.0
28/10:30am 17.6 14.4 10.0 61 4.0 NNE 17 22 9 12 1023.2 1023.0 0.0
28/10:00am 16.5 13.4 10.4 67 3.2 NNE 17 22 9 12 1023.3 1023.1 0.0
28/09:30am 15.1 11.5 10.7 75 2.3 NE 20 26 11 14 1022.9 1022.8 0.0
28/09:00am 13.7 10.4 11.0 84 1.4 NE 19 24 10 13 1022.7 1022.6 0.0
28/08:30am 13.1 10.9 10.8 86 1.2 NNE 13 19 7 10 1022.8 1022.7 0.0
28/08:00am 13.3 10.3 10.8 85 1.3 NE 17 22 9 12 1022.4 1022.3 0.0
28/07:30am 13.3 10.3 10.7 84 1.4 ENE 17 20 9 11 1022.5 1022.4 0.0
28/07:00am 13.4 11.1 10.6 83 1.5 NNE 13 17 7 9 1022.8 1022.7 0.0
28/06:30am 13.3 10.9 9.9 80 1.7 NE 13 17 7 9 1022.5 1022.4 0.0
28/06:00am 13.5 11.7 9.4 76 2.1 N 9 11 5 6 1022.6 1022.5 0.0
28/05:30am 13.7 11.9 9.6 76 2.1 E 9 11 5 6 1022.2 1022.0 0.0
28/05:00am 13.6 11.4 9.5 76 2.1 E 11 15 6 8 1022.2 1022.0 0.0
28/04:30am 13.7 11.1 9.4 75 2.2 ESE 13 15 7 8 1022.3 1022.2 0.0
28/04:00am 13.8 10.9 9.5 75 2.2 ESE 15 19 8 10 1022.7 1022.6 0.0
28/03:30am 14.0 11.1 9.6 75 2.3 E 15 19 8 10 1023.1 1022.9 0.0
28/03:00am 14.2 10.5 9.6 74 2.4 E 19 24 10 13 1023.2 1023.0 0.0
28/02:30am 14.6 10.8 9.8 73 2.5 E 20 26 11 14 1023.7 1023.5 0.0
28/02:00am 14.9 11.2 10.1 73 2.5 E 20 24 11 13 1024.0 1023.8 0.0
28/01:30am 15.1 11.4 10.1 72 2.6 E 20 26 11 14 1024.3 1024.1 0.0
28/01:00am 15.3 11.1 9.9 70 2.8 E 22 28 12 15 1024.3 1024.1 0.0
28/12:30am 15.4 11.3 10.0 70 2.8 ESE 22 32 12 17 1024.7 1024.5 0.0
28/12:00am 15.5 11.2 9.4 67 3.1 ESE 22 30 12 16 1025.0 1024.8 0.0
 
Date/Time
CDT
Temp
°C
App
Temp
°C
Dew
Point
Rel
Hum
%
Delta-T
°C
Wind Press
QNH
hPa
Press
MSL
hPa
Rain
since 9 am
mm
Dir
 
Spd
km/h
Gust
km/h
Spd
kts
Gust
kts
27/11:30pm 15.8 11.5 9.5 66 3.3 ESE 22 28 12 15 1025.2 1025.0 0.0
27/11:00pm 16.0 12.5 10.1 68 3.1 ESE 19 24 10 13 1025.5 1025.3 0.0
27/10:30pm 16.5 12.9 10.6 68 3.1 ESE 20 28 11 15 1025.5 1025.3 0.0
27/10:00pm 16.6 12.6 10.5 67 3.2 ESE 22 28 12 15 1025.8 1025.6 0.0
27/09:30pm 16.6 12.2 10.5 67 3.2 ESE 24 32 13 17 1025.4 1025.2 0.0
27/09:00pm 16.6 13.0 10.5 67 3.2 ESE 20 28 11 15 1025.4 1025.2 0.0
27/08:30pm 16.7 12.9 9.9 64 3.6 SE 20 28 11 15 1025.2 1025.0 0.0
27/08:00pm 17.0 12.7 9.4 61 4.0 SE 22 30 12 16 1024.9 1024.7 0.0
27/07:30pm 17.7 12.3 9.6 59 4.2 SE 28 35 15 19 1024.7 1024.5 0.0
27/07:00pm 18.5 13.1 9.6 56 4.7 SE 28 37 15 20 1024.6 1024.4 0.0
27/06:30pm 18.5 12.7 9.3 55 4.8 SE 30 35 16 19 1024.7 1024.5 0.0
27/06:00pm 18.9 12.9 8.8 52 5.3 SE 30 37 16 20 1024.5 1024.3 0.0
27/05:30pm 19.9 14.2 8.3 47 6.0 SE 28 35 15 19 1024.8 1024.6 0.0
27/05:00pm 20.7 15.6 7.7 43 6.7 SE 24 32 13 17 1024.9 1024.7 0.0
27/04:30pm 21.3 16.5 7.2 40 7.2 SE 22 32 12 17 1025.3 1025.1 0.0

Other Formats:

Comma delimited format used in spreadsheet applications
http://www.bom.gov.au/fwo/IDS60801/IDS60801.94651.axf

JavaScript Object Notation format (JSON) in row-major order
http://www.bom.gov.au/fwo/IDS60801/IDS60801.94651.json